sensor_id;sensor_type;location;lat;lon;timestamp;P1;durP1;ratioP1;P2;durP2;ratioP2
2546;SDS011;1283;47.982;7.834;2022-12-04T00:00:19;30.38;;;14.82;;
2546;SDS011;1283;47.982;7.834;2022-12-04T00:02:46;31.00;;;13.57;;
2546;SDS011;1283;47.982;7.834;2022-12-04T00:05:12;28.77;;;12.95;;
2546;SDS011;1283;47.982;7.834;2022-12-04T00:07:39;27.85;;;12.23;;
2546;SDS011;1283;47.982;7.834;2022-12-04T00:10:06;26.60;;;13.05;;
2546;SDS011;1283;47.982;7.834;2022-12-04T00:12:34;26.30;;;12.07;;
2546;SDS011;1283;47.982;7.834;2022-12-04T00:15:01;28.20;;;12.65;;
2546;SDS011;1283;47.982;7.834;2022-12-04T00:17:28;33.50;;;13.23;;
2546;SDS011;1283;47.982;7.834;2022-12-04T00:19:55;30.13;;;12.85;;
2546;SDS011;1283;47.982;7.834;2022-12-04T00:22:21;30.17;;;13.07;;
2546;SDS011;1283;47.982;7.834;2022-12-04T00:24:48;32.28;;;13.50;;
2546;SDS011;1283;47.982;7.834;2022-12-04T00:27:14;29.83;;;13.45;;
2546;SDS011;1283;47.982;7.834;2022-12-04T00:29:42;31.42;;;12.68;;
2546;SDS011;1283;47.982;7.834;2022-12-04T00:32:09;27.67;;;12.63;;
2546;SDS011;1283;47.982;7.834;2022-12-04T00:34:35;29.58;;;13.15;;
2546;SDS011;1283;47.982;7.834;2022-12-04T00:37:01;26.05;;;12.20;;
2546;SDS011;1283;47.982;7.834;2022-12-04T00:39:28;30.40;;;13.65;;
2546;SDS011;1283;47.982;7.834;2022-12-04T00:41:54;29.65;;;12.88;;
2546;SDS011;1283;47.982;7.834;2022-12-04T00:44:21;27.98;;;12.13;;
2546;SDS011;1283;47.982;7.834;2022-12-04T00:46:49;31.58;;;13.98;;
2546;SDS011;1283;47.982;7.834;2022-12-04T00:49:15;30.88;;;12.95;;
2546;SDS011;1283;47.982;7.834;2022-12-04T00:51:41;26.90;;;12.65;;
2546;SDS011;1283;47.982;7.834;2022-12-04T00:54:08;33.60;;;12.75;;
2546;SDS011;1283;47.982;7.834;2022-12-04T00:56:34;31.60;;;13.85;;
2546;SDS011;1283;47.982;7.834;2022-12-04T00:59:01;27.92;;;12.57;;
2546;SDS011;1283;47.982;7.834;2022-12-04T01:01:27;26.30;;;12.75;;
2546;SDS011;1283;47.982;7.834;2022-12-04T01:03:55;31.33;;;13.55;;
2546;SDS011;1283;47.982;7.834;2022-12-04T01:06:23;32.85;;;13.80;;
2546;SDS011;1283;47.982;7.834;2022-12-04T01:08:51;29.02;;;12.50;;
2546;SDS011;1283;47.982;7.834;2022-12-04T01:11:19;27.30;;;12.90;;
2546;SDS011;1283;47.982;7.834;2022-12-04T01:13:46;29.70;;;13.55;;
2546;SDS011;1283;47.982;7.834;2022-12-04T01:16:16;27.70;;;12.18;;
2546;SDS011;1283;47.982;7.834;2022-12-04T01:18:44;25.77;;;12.15;;
2546;SDS011;1283;47.982;7.834;2022-12-04T01:21:11;28.23;;;12.80;;
2546;SDS011;1283;47.982;7.834;2022-12-04T01:23:38;28.73;;;12.18;;
2546;SDS011;1283;47.982;7.834;2022-12-04T01:26:04;27.98;;;12.40;;
2546;SDS011;1283;47.982;7.834;2022-12-04T01:28:31;26.95;;;12.75;;
2546;SDS011;1283;47.982;7.834;2022-12-04T01:30:58;27.30;;;11.85;;
2546;SDS011;1283;47.982;7.834;2022-12-04T01:33:25;29.27;;;12.52;;
2546;SDS011;1283;47.982;7.834;2022-12-04T01:35:52;26.23;;;11.43;;
2546;SDS011;1283;47.982;7.834;2022-12-04T01:38:20;26.88;;;12.40;;
2546;SDS011;1283;47.982;7.834;2022-12-04T01:40:47;25.23;;;11.27;;
2546;SDS011;1283;47.982;7.834;2022-12-04T01:43:14;29.35;;;11.50;;
2546;SDS011;1283;47.982;7.834;2022-12-04T01:45:41;26.35;;;11.88;;
2546;SDS011;1283;47.982;7.834;2022-12-04T01:48:11;23.73;;;11.32;;
2546;SDS011;1283;47.982;7.834;2022-12-04T01:50:41;21.92;;;11.23;;
2546;SDS011;1283;47.982;7.834;2022-12-04T01:53:08;25.00;;;11.52;;
2546;SDS011;1283;47.982;7.834;2022-12-04T01:55:36;25.30;;;11.00;;
2546;SDS011;1283;47.982;7.834;2022-12-04T01:58:03;23.55;;;10.95;;
2546;SDS011;1283;47.982;7.834;2022-12-04T02:00:29;24.92;;;12.20;;
2546;SDS011;1283;47.982;7.834;2022-12-04T02:02:56;24.58;;;12.18;;
2546;SDS011;1283;47.982;7.834;2022-12-04T02:05:23;25.02;;;10.85;;
2546;SDS011;1283;47.982;7.834;2022-12-04T02:07:51;23.80;;;11.73;;
2546;SDS011;1283;47.982;7.834;2022-12-04T02:10:20;25.95;;;12.65;;
2546;SDS011;1283;47.982;7.834;2022-12-04T02:12:53;24.30;;;10.23;;
2546;SDS011;1283;47.982;7.834;2022-12-04T02:15:26;24.35;;;11.45;;
2546;SDS011;1283;47.982;7.834;2022-12-04T02:17:58;25.08;;;12.18;;
2546;SDS011;1283;47.982;7.834;2022-12-04T02:20:30;22.40;;;11.10;;
2546;SDS011;1283;47.982;7.834;2022-12-04T02:23:09;22.50;;;11.45;;
2546;SDS011;1283;47.982;7.834;2022-12-04T02:25:58;21.20;;;10.27;;
2546;SDS011;1283;47.982;7.834;2022-12-04T02:28:29;25.83;;;11.63;;
2546;SDS011;1283;47.982;7.834;2022-12-04T02:30:58;23.20;;;11.68;;
2546;SDS011;1283;47.982;7.834;2022-12-04T02:33:26;22.45;;;10.95;;
2546;SDS011;1283;47.982;7.834;2022-12-04T02:35:57;26.35;;;12.20;;
2546;SDS011;1283;47.982;7.834;2022-12-04T02:38:28;21.50;;;10.50;;
2546;SDS011;1283;47.982;7.834;2022-12-04T02:41:00;20.60;;;10.88;;
2546;SDS011;1283;47.982;7.834;2022-12-04T02:43:35;22.33;;;10.80;;
2546;SDS011;1283;47.982;7.834;2022-12-04T02:46:04;23.90;;;10.75;;
2546;SDS011;1283;47.982;7.834;2022-12-04T02:48:33;24.73;;;11.02;;
2546;SDS011;1283;47.982;7.834;2022-12-04T02:51:00;24.88;;;11.23;;
2546;SDS011;1283;47.982;7.834;2022-12-04T02:53:30;23.02;;;11.05;;
2546;SDS011;1283;47.982;7.834;2022-12-04T02:55:59;26.73;;;11.48;;
2546;SDS011;1283;47.982;7.834;2022-12-04T02:58:28;22.67;;;10.90;;
2546;SDS011;1283;47.982;7.834;2022-12-04T03:00:58;25.38;;;12.15;;
2546;SDS011;1283;47.982;7.834;2022-12-04T03:03:26;23.48;;;11.27;;
2546;SDS011;1283;47.982;7.834;2022-12-04T03:05:54;22.83;;;11.32;;
2546;SDS011;1283;47.982;7.834;2022-12-04T03:08:25;22.08;;;10.25;;
2546;SDS011;1283;47.982;7.834;2022-12-04T03:10:55;27.63;;;12.13;;
2546;SDS011;1283;47.982;7.834;2022-12-04T03:13:25;25.48;;;11.65;;
2546;SDS011;1283;47.982;7.834;2022-12-04T03:15:57;25.38;;;11.38;;
2546;SDS011;1283;47.982;7.834;2022-12-04T03:18:27;22.20;;;11.20;;
2546;SDS011;1283;47.982;7.834;2022-12-04T03:20:56;25.33;;;11.98;;
2546;SDS011;1283;47.982;7.834;2022-12-04T03:23:25;39.17;;;16.55;;
2546;SDS011;1283;47.982;7.834;2022-12-04T03:25:56;47.92;;;20.52;;
2546;SDS011;1283;47.982;7.834;2022-12-04T03:28:27;43.17;;;18.63;;
2546;SDS011;1283;47.982;7.834;2022-12-04T03:31:01;49.22;;;19.17;;
2546;SDS011;1283;47.982;7.834;2022-12-04T03:33:32;41.95;;;18.80;;
2546;SDS011;1283;47.982;7.834;2022-12-04T03:36:08;46.38;;;19.90;;
2546;SDS011;1283;47.982;7.834;2022-12-04T03:38:52;46.20;;;19.23;;
2546;SDS011;1283;47.982;7.834;2022-12-04T03:41:24;45.53;;;18.42;;
2546;SDS011;1283;47.982;7.834;2022-12-04T03:43:56;44.40;;;18.73;;
2546;SDS011;1283;47.982;7.834;2022-12-04T03:46:28;35.20;;;17.02;;
2546;SDS011;1283;47.982;7.834;2022-12-04T03:49:04;38.03;;;17.38;;
2546;SDS011;1283;47.982;7.834;2022-12-04T03:51:43;38.45;;;16.77;;
2546;SDS011;1283;47.982;7.834;2022-12-04T03:54:15;35.50;;;15.30;;
2546;SDS011;1283;47.982;7.834;2022-12-04T03:56:45;33.22;;;16.10;;
2546;SDS011;1283;47.982;7.834;2022-12-04T03:59:27;34.80;;;16.05;;
2546;SDS011;1283;47.982;7.834;2022-12-04T04:01:59;34.45;;;16.38;;
2546;SDS011;1283;47.982;7.834;2022-12-04T04:04:39;32.05;;;15.95;;
2546;SDS011;1283;47.982;7.834;2022-12-04T04:07:27;32.95;;;15.27;;
2546;SDS011;1283;47.982;7.834;2022-12-04T04:10:01;30.42;;;14.93;;
2546;SDS011;1283;47.982;7.834;2022-12-04T04:12:37;30.65;;;15.23;;
2546;SDS011;1283;47.982;7.834;2022-12-04T04:15:07;31.30;;;15.05;;
2546;SDS011;1283;47.982;7.834;2022-12-04T04:17:58;30.88;;;14.65;;
2546;SDS011;1283;47.982;7.834;2022-12-04T04:20:48;33.13;;;14.10;;
2546;SDS011;1283;47.982;7.834;2022-12-04T04:23:39;33.42;;;14.82;;
2546;SDS011;1283;47.982;7.834;2022-12-04T04:26:25;30.10;;;14.30;;
2546;SDS011;1283;47.982;7.834;2022-12-04T04:29:06;29.88;;;14.23;;
2546;SDS011;1283;47.982;7.834;2022-12-04T04:31:45;29.58;;;15.07;;
2546;SDS011;1283;47.982;7.834;2022-12-04T04:34:22;31.23;;;15.25;;
2546;SDS011;1283;47.982;7.834;2022-12-04T04:37:10;31.25;;;15.40;;
2546;SDS011;1283;47.982;7.834;2022-12-04T04:39:51;35.03;;;14.80;;
2546;SDS011;1283;47.982;7.834;2022-12-04T04:43:04;31.02;;;15.23;;
2546;SDS011;1283;47.982;7.834;2022-12-04T04:45:40;30.45;;;14.90;;
2546;SDS011;1283;47.982;7.834;2022-12-04T04:48:11;32.20;;;16.05;;
2546;SDS011;1283;47.982;7.834;2022-12-04T04:50:44;37.17;;;17.17;;
2546;SDS011;1283;47.982;7.834;2022-12-04T04:53:21;34.17;;;15.80;;
2546;SDS011;1283;47.982;7.834;2022-12-04T04:55:51;27.70;;;14.40;;
2546;SDS011;1283;47.982;7.834;2022-12-04T04:58:24;31.13;;;15.13;;
2546;SDS011;1283;47.982;7.834;2022-12-04T05:00:54;27.35;;;14.57;;
2546;SDS011;1283;47.982;7.834;2022-12-04T05:03:29;28.50;;;13.68;;
2546;SDS011;1283;47.982;7.834;2022-12-04T05:06:00;30.92;;;14.18;;
2546;SDS011;1283;47.982;7.834;2022-12-04T05:08:28;29.65;;;14.68;;
2546;SDS011;1283;47.982;7.834;2022-12-04T05:10:55;28.02;;;13.95;;
2546;SDS011;1283;47.982;7.834;2022-12-04T05:13:28;38.42;;;14.00;;
2546;SDS011;1283;47.982;7.834;2022-12-04T05:15:59;27.20;;;13.65;;
2546;SDS011;1283;47.982;7.834;2022-12-04T05:18:30;27.23;;;12.60;;
2546;SDS011;1283;47.982;7.834;2022-12-04T05:21:05;32.22;;;14.25;;
2546;SDS011;1283;47.982;7.834;2022-12-04T05:23:40;30.25;;;13.98;;
2546;SDS011;1283;47.982;7.834;2022-12-04T05:26:10;26.92;;;13.10;;
2546;SDS011;1283;47.982;7.834;2022-12-04T05:28:38;27.48;;;13.57;;
2546;SDS011;1283;47.982;7.834;2022-12-04T05:31:10;26.92;;;12.13;;
2546;SDS011;1283;47.982;7.834;2022-12-04T05:33:43;26.38;;;12.65;;
2546;SDS011;1283;47.982;7.834;2022-12-04T05:36:17;28.65;;;11.88;;
2546;SDS011;1283;47.982;7.834;2022-12-04T05:38:51;24.33;;;11.57;;
2546;SDS011;1283;47.982;7.834;2022-12-04T05:41:19;25.33;;;11.50;;
2546;SDS011;1283;47.982;7.834;2022-12-04T05:43:49;26.63;;;11.68;;
2546;SDS011;1283;47.982;7.834;2022-12-04T05:46:19;23.90;;;11.68;;
2546;SDS011;1283;47.982;7.834;2022-12-04T05:48:49;24.75;;;12.18;;
2546;SDS011;1283;47.982;7.834;2022-12-04T05:51:20;22.90;;;11.02;;
2546;SDS011;1283;47.982;7.834;2022-12-04T05:53:56;23.85;;;11.50;;
2546;SDS011;1283;47.982;7.834;2022-12-04T05:56:25;25.63;;;11.18;;
2546;SDS011;1283;47.982;7.834;2022-12-04T05:58:54;22.80;;;10.82;;
2546;SDS011;1283;47.982;7.834;2022-12-04T06:01:26;23.38;;;10.85;;
2546;SDS011;1283;47.982;7.834;2022-12-04T06:04:08;24.25;;;10.98;;
2546;SDS011;1283;47.982;7.834;2022-12-04T06:06:44;22.25;;;11.18;;
2546;SDS011;1283;47.982;7.834;2022-12-04T06:09:14;21.25;;;10.18;;
2546;SDS011;1283;47.982;7.834;2022-12-04T06:11:44;20.38;;;10.13;;
2546;SDS011;1283;47.982;7.834;2022-12-04T06:14:14;22.83;;;11.38;;
2546;SDS011;1283;47.982;7.834;2022-12-04T06:16:44;21.02;;;10.40;;
2546;SDS011;1283;47.982;7.834;2022-12-04T06:19:15;20.45;;;10.20;;
2546;SDS011;1283;47.982;7.834;2022-12-04T06:22:04;22.73;;;11.20;;
2546;SDS011;1283;47.982;7.834;2022-12-04T06:24:31;24.10;;;10.95;;
2546;SDS011;1283;47.982;7.834;2022-12-04T06:26:58;19.13;;;10.40;;
2546;SDS011;1283;47.982;7.834;2022-12-04T06:29:29;20.90;;;9.98;;
2546;SDS011;1283;47.982;7.834;2022-12-04T06:31:57;21.45;;;10.57;;
2546;SDS011;1283;47.982;7.834;2022-12-04T06:34:23;21.10;;;9.98;;
2546;SDS011;1283;47.982;7.834;2022-12-04T06:36:50;25.17;;;11.63;;
2546;SDS011;1283;47.982;7.834;2022-12-04T06:39:30;24.20;;;11.15;;
2546;SDS011;1283;47.982;7.834;2022-12-04T06:41:58;21.13;;;10.05;;
2546;SDS011;1283;47.982;7.834;2022-12-04T06:44:36;23.17;;;10.90;;
2546;SDS011;1283;47.982;7.834;2022-12-04T06:47:18;26.65;;;10.60;;
2546;SDS011;1283;47.982;7.834;2022-12-04T06:49:47;22.63;;;10.98;;
2546;SDS011;1283;47.982;7.834;2022-12-04T06:52:15;23.30;;;10.90;;
2546;SDS011;1283;47.982;7.834;2022-12-04T06:55:09;25.27;;;10.82;;
2546;SDS011;1283;47.982;7.834;2022-12-04T06:57:39;22.88;;;11.40;;
2546;SDS011;1283;47.982;7.834;2022-12-04T07:00:08;23.23;;;10.40;;
2546;SDS011;1283;47.982;7.834;2022-12-04T07:02:40;19.55;;;10.05;;
2546;SDS011;1283;47.982;7.834;2022-12-04T07:05:07;22.45;;;11.05;;
2546;SDS011;1283;47.982;7.834;2022-12-04T07:07:35;26.02;;;11.18;;
2546;SDS011;1283;47.982;7.834;2022-12-04T07:10:09;23.67;;;10.70;;
2546;SDS011;1283;47.982;7.834;2022-12-04T07:12:37;23.25;;;10.13;;
2546;SDS011;1283;47.982;7.834;2022-12-04T07:15:14;21.50;;;10.52;;
2546;SDS011;1283;47.982;7.834;2022-12-04T07:17:51;23.38;;;10.73;;
2546;SDS011;1283;47.982;7.834;2022-12-04T07:20:32;23.63;;;10.25;;
2546;SDS011;1283;47.982;7.834;2022-12-04T07:23:04;21.30;;;10.80;;
2546;SDS011;1283;47.982;7.834;2022-12-04T07:25:32;21.13;;;10.10;;
2546;SDS011;1283;47.982;7.834;2022-12-04T07:27:59;22.73;;;10.13;;
2546;SDS011;1283;47.982;7.834;2022-12-04T07:30:28;20.70;;;9.63;;
2546;SDS011;1283;47.982;7.834;2022-12-04T07:33:00;20.27;;;10.05;;
2546;SDS011;1283;47.982;7.834;2022-12-04T07:35:27;26.25;;;9.95;;
2546;SDS011;1283;47.982;7.834;2022-12-04T07:38:08;21.52;;;9.93;;
2546;SDS011;1283;47.982;7.834;2022-12-04T07:40:40;18.13;;;9.48;;
2546;SDS011;1283;47.982;7.834;2022-12-04T07:43:16;23.25;;;10.98;;
2546;SDS011;1283;47.982;7.834;2022-12-04T07:45:45;24.45;;;11.32;;
2546;SDS011;1283;47.982;7.834;2022-12-04T07:48:21;19.40;;;10.38;;
2546;SDS011;1283;47.982;7.834;2022-12-04T07:50:48;23.98;;;10.73;;
2546;SDS011;1283;47.982;7.834;2022-12-04T07:53:29;24.15;;;11.00;;
2546;SDS011;1283;47.982;7.834;2022-12-04T07:56:00;23.40;;;10.32;;
2546;SDS011;1283;47.982;7.834;2022-12-04T07:58:27;22.67;;;10.90;;
2546;SDS011;1283;47.982;7.834;2022-12-04T08:03:43;24.23;;;12.07;;
2546;SDS011;1283;47.982;7.834;2022-12-04T08:06:11;21.63;;;11.30;;
2546;SDS011;1283;47.982;7.834;2022-12-04T08:08:44;24.13;;;12.07;;
2546;SDS011;1283;47.982;7.834;2022-12-04T08:11:13;25.90;;;11.25;;
2546;SDS011;1283;47.982;7.834;2022-12-04T08:16:49;26.08;;;11.35;;
2546;SDS011;1283;47.982;7.834;2022-12-04T08:19:16;25.80;;;13.10;;
2546;SDS011;1283;47.982;7.834;2022-12-04T08:21:43;26.52;;;12.85;;
2546;SDS011;1283;47.982;7.834;2022-12-04T08:26:59;27.02;;;13.98;;
2546;SDS011;1283;47.982;7.834;2022-12-04T08:29:26;28.02;;;14.18;;
2546;SDS011;1283;47.982;7.834;2022-12-04T08:31:55;28.75;;;14.48;;
2546;SDS011;1283;47.982;7.834;2022-12-04T08:34:26;28.02;;;13.45;;
2546;SDS011;1283;47.982;7.834;2022-12-04T08:36:53;23.75;;;12.10;;
2546;SDS011;1283;47.982;7.834;2022-12-04T08:39:20;24.25;;;13.32;;
2546;SDS011;1283;47.982;7.834;2022-12-04T08:41:47;25.23;;;13.45;;
2546;SDS011;1283;47.982;7.834;2022-12-04T08:44:23;26.40;;;13.05;;
2546;SDS011;1283;47.982;7.834;2022-12-04T08:47:01;27.27;;;13.25;;
2546;SDS011;1283;47.982;7.834;2022-12-04T08:49:31;27.33;;;12.82;;
2546;SDS011;1283;47.982;7.834;2022-12-04T08:52:03;28.05;;;12.77;;
2546;SDS011;1283;47.982;7.834;2022-12-04T08:54:45;26.55;;;13.02;;
2546;SDS011;1283;47.982;7.834;2022-12-04T08:57:21;25.58;;;12.85;;
2546;SDS011;1283;47.982;7.834;2022-12-04T08:59:53;28.13;;;13.73;;
2546;SDS011;1283;47.982;7.834;2022-12-04T09:02:30;24.23;;;12.27;;
2546;SDS011;1283;47.982;7.834;2022-12-04T09:05:00;26.15;;;13.10;;
2546;SDS011;1283;47.982;7.834;2022-12-04T09:07:30;26.92;;;13.43;;
2546;SDS011;1283;47.982;7.834;2022-12-04T09:09:57;27.25;;;14.40;;
2546;SDS011;1283;47.982;7.834;2022-12-04T09:12:23;27.73;;;13.23;;
2546;SDS011;1283;47.982;7.834;2022-12-04T09:14:50;27.77;;;13.75;;
2546;SDS011;1283;47.982;7.834;2022-12-04T09:17:18;29.13;;;14.75;;
2546;SDS011;1283;47.982;7.834;2022-12-04T09:19:47;28.23;;;14.88;;
2546;SDS011;1283;47.982;7.834;2022-12-04T09:22:14;28.77;;;14.20;;
2546;SDS011;1283;47.982;7.834;2022-12-04T09:25:03;26.75;;;13.45;;
2546;SDS011;1283;47.982;7.834;2022-12-04T09:27:34;30.38;;;14.57;;
2546;SDS011;1283;47.982;7.834;2022-12-04T09:30:06;26.98;;;13.15;;
2546;SDS011;1283;47.982;7.834;2022-12-04T09:32:38;25.35;;;13.65;;
2546;SDS011;1283;47.982;7.834;2022-12-04T09:35:09;27.75;;;13.35;;
2546;SDS011;1283;47.982;7.834;2022-12-04T09:37:46;33.28;;;13.35;;
2546;SDS011;1283;47.982;7.834;2022-12-04T09:40:18;25.92;;;13.48;;
2546;SDS011;1283;47.982;7.834;2022-12-04T09:42:51;21.38;;;12.27;;
2546;SDS011;1283;47.982;7.834;2022-12-04T09:45:23;23.58;;;12.80;;
2546;SDS011;1283;47.982;7.834;2022-12-04T09:47:57;27.88;;;14.15;;
2546;SDS011;1283;47.982;7.834;2022-12-04T09:50:30;26.75;;;12.77;;
2546;SDS011;1283;47.982;7.834;2022-12-04T09:53:08;29.80;;;13.50;;
2546;SDS011;1283;47.982;7.834;2022-12-04T09:55:50;28.20;;;13.68;;
2546;SDS011;1283;47.982;7.834;2022-12-04T09:58:45;22.77;;;12.15;;
2546;SDS011;1283;47.982;7.834;2022-12-04T10:01:17;26.48;;;12.82;;
2546;SDS011;1283;47.982;7.834;2022-12-04T10:03:48;23.80;;;13.10;;
2546;SDS011;1283;47.982;7.834;2022-12-04T10:06:17;25.35;;;13.07;;
2546;SDS011;1283;47.982;7.834;2022-12-04T10:08:50;26.20;;;13.20;;
2546;SDS011;1283;47.982;7.834;2022-12-04T10:11:22;27.58;;;13.32;;
2546;SDS011;1283;47.982;7.834;2022-12-04T10:14:04;24.90;;;13.32;;
2546;SDS011;1283;47.982;7.834;2022-12-04T10:17:11;27.75;;;14.02;;
2546;SDS011;1283;47.982;7.834;2022-12-04T10:19:57;26.50;;;12.68;;
2546;SDS011;1283;47.982;7.834;2022-12-04T10:22:29;31.02;;;14.32;;
2546;SDS011;1283;47.982;7.834;2022-12-04T10:25:17;27.52;;;13.73;;
2546;SDS011;1283;47.982;7.834;2022-12-04T10:27:47;27.00;;;13.85;;
2546;SDS011;1283;47.982;7.834;2022-12-04T10:33:32;26.42;;;14.00;;
2546;SDS011;1283;47.982;7.834;2022-12-04T10:36:16;26.13;;;12.90;;
2546;SDS011;1283;47.982;7.834;2022-12-04T10:38:46;29.48;;;13.77;;
2546;SDS011;1283;47.982;7.834;2022-12-04T10:41:17;26.67;;;13.95;;
2546;SDS011;1283;47.982;7.834;2022-12-04T10:43:48;31.40;;;15.60;;
2546;SDS011;1283;47.982;7.834;2022-12-04T10:46:20;34.53;;;16.15;;
2546;SDS011;1283;47.982;7.834;2022-12-04T10:48:51;34.40;;;16.10;;
2546;SDS011;1283;47.982;7.834;2022-12-04T10:51:22;31.90;;;15.60;;
2546;SDS011;1283;47.982;7.834;2022-12-04T10:53:56;31.30;;;15.25;;
2546;SDS011;1283;47.982;7.834;2022-12-04T10:56:48;27.45;;;13.73;;
2546;SDS011;1283;47.982;7.834;2022-12-04T10:59:19;30.23;;;14.35;;
2546;SDS011;1283;47.982;7.834;2022-12-04T11:05:21;28.75;;;14.30;;
2546;SDS011;1283;47.982;7.834;2022-12-04T11:07:58;33.25;;;16.10;;
2546;SDS011;1283;47.982;7.834;2022-12-04T11:10:38;32.22;;;15.90;;
2546;SDS011;1283;47.982;7.834;2022-12-04T11:13:13;28.42;;;14.88;;
2546;SDS011;1283;47.982;7.834;2022-12-04T11:15:42;37.75;;;16.33;;
2546;SDS011;1283;47.982;7.834;2022-12-04T11:18:14;31.70;;;14.55;;
2546;SDS011;1283;47.982;7.834;2022-12-04T11:20:48;34.13;;;14.90;;
2546;SDS011;1283;47.982;7.834;2022-12-04T11:23:18;36.17;;;15.70;;
2546;SDS011;1283;47.982;7.834;2022-12-04T11:25:52;38.58;;;16.10;;
2546;SDS011;1283;47.982;7.834;2022-12-04T11:28:22;32.75;;;15.35;;
2546;SDS011;1283;47.982;7.834;2022-12-04T11:30:51;34.70;;;15.90;;
2546;SDS011;1283;47.982;7.834;2022-12-04T11:33:21;31.90;;;15.38;;
2546;SDS011;1283;47.982;7.834;2022-12-04T11:35:52;35.50;;;17.45;;
2546;SDS011;1283;47.982;7.834;2022-12-04T11:38:22;40.67;;;17.35;;
2546;SDS011;1283;47.982;7.834;2022-12-04T11:40:51;40.88;;;18.17;;
2546;SDS011;1283;47.982;7.834;2022-12-04T11:43:18;39.58;;;18.00;;
2546;SDS011;1283;47.982;7.834;2022-12-04T11:45:52;34.55;;;16.77;;
2546;SDS011;1283;47.982;7.834;2022-12-04T11:48:19;38.30;;;16.70;;
2546;SDS011;1283;47.982;7.834;2022-12-04T11:50:48;36.17;;;15.65;;
2546;SDS011;1283;47.982;7.834;2022-12-04T11:53:17;35.33;;;16.48;;
2546;SDS011;1283;47.982;7.834;2022-12-04T11:55:57;36.58;;;17.42;;
2546;SDS011;1283;47.982;7.834;2022-12-04T12:01:38;32.95;;;15.27;;
2546;SDS011;1283;47.982;7.834;2022-12-04T12:04:16;34.08;;;15.77;;
2546;SDS011;1283;47.982;7.834;2022-12-04T12:06:53;33.83;;;15.60;;
2546;SDS011;1283;47.982;7.834;2022-12-04T12:09:27;34.38;;;15.18;;
2546;SDS011;1283;47.982;7.834;2022-12-04T12:12:02;35.83;;;15.50;;
2546;SDS011;1283;47.982;7.834;2022-12-04T12:14:33;41.22;;;16.60;;
2546;SDS011;1283;47.982;7.834;2022-12-04T12:17:07;38.35;;;15.68;;
2546;SDS011;1283;47.982;7.834;2022-12-04T12:19:45;32.80;;;15.48;;
2546;SDS011;1283;47.982;7.834;2022-12-04T12:22:22;36.38;;;16.05;;
2546;SDS011;1283;47.982;7.834;2022-12-04T12:25:00;37.30;;;16.25;;
2546;SDS011;1283;47.982;7.834;2022-12-04T12:27:44;34.83;;;15.95;;
2546;SDS011;1283;47.982;7.834;2022-12-04T12:30:18;36.17;;;15.48;;
2546;SDS011;1283;47.982;7.834;2022-12-04T12:35:31;34.25;;;15.00;;
2546;SDS011;1283;47.982;7.834;2022-12-04T12:38:00;32.63;;;15.10;;
2546;SDS011;1283;47.982;7.834;2022-12-04T12:40:31;37.85;;;16.10;;
2546;SDS011;1283;47.982;7.834;2022-12-04T12:42:59;35.40;;;15.90;;
2546;SDS011;1283;47.982;7.834;2022-12-04T12:45:31;31.58;;;14.98;;
2546;SDS011;1283;47.982;7.834;2022-12-04T12:48:03;35.40;;;15.70;;
2546;SDS011;1283;47.982;7.834;2022-12-04T12:50:40;38.95;;;16.52;;
2546;SDS011;1283;47.982;7.834;2022-12-04T12:53:10;39.40;;;15.88;;
2546;SDS011;1283;47.982;7.834;2022-12-04T12:55:41;38.03;;;15.80;;
2546;SDS011;1283;47.982;7.834;2022-12-04T12:58:11;36.33;;;15.45;;
2546;SDS011;1283;47.982;7.834;2022-12-04T13:00:41;32.95;;;13.85;;
2546;SDS011;1283;47.982;7.834;2022-12-04T13:03:15;36.83;;;15.55;;
2546;SDS011;1283;47.982;7.834;2022-12-04T13:05:47;35.17;;;15.57;;
2546;SDS011;1283;47.982;7.834;2022-12-04T13:08:20;36.15;;;15.73;;
2546;SDS011;1283;47.982;7.834;2022-12-04T13:10:49;34.22;;;14.85;;
2546;SDS011;1283;47.982;7.834;2022-12-04T13:13:19;38.47;;;16.08;;
2546;SDS011;1283;47.982;7.834;2022-12-04T13:15:50;35.38;;;16.35;;
2546;SDS011;1283;47.982;7.834;2022-12-04T13:18:22;40.40;;;17.38;;
2546;SDS011;1283;47.982;7.834;2022-12-04T13:20:51;41.75;;;17.75;;
2546;SDS011;1283;47.982;7.834;2022-12-04T13:23:23;38.30;;;14.95;;
2546;SDS011;1283;47.982;7.834;2022-12-04T13:26:01;36.47;;;15.48;;
2546;SDS011;1283;47.982;7.834;2022-12-04T13:28:35;34.05;;;14.95;;
2546;SDS011;1283;47.982;7.834;2022-12-04T13:31:09;38.58;;;15.98;;
2546;SDS011;1283;47.982;7.834;2022-12-04T13:33:47;35.30;;;15.85;;
2546;SDS011;1283;47.982;7.834;2022-12-04T13:36:27;37.78;;;16.42;;
2546;SDS011;1283;47.982;7.834;2022-12-04T13:39:03;33.72;;;14.52;;
2546;SDS011;1283;47.982;7.834;2022-12-04T13:41:44;32.15;;;14.38;;
2546;SDS011;1283;47.982;7.834;2022-12-04T13:44:12;35.78;;;15.88;;
2546;SDS011;1283;47.982;7.834;2022-12-04T13:46:46;36.80;;;15.82;;
2546;SDS011;1283;47.982;7.834;2022-12-04T13:49:23;36.45;;;15.95;;
2546;SDS011;1283;47.982;7.834;2022-12-04T13:51:52;33.92;;;15.30;;
2546;SDS011;1283;47.982;7.834;2022-12-04T13:54:20;34.63;;;14.80;;
2546;SDS011;1283;47.982;7.834;2022-12-04T13:56:51;34.83;;;15.45;;
2546;SDS011;1283;47.982;7.834;2022-12-04T13:59:20;38.20;;;15.68;;
2546;SDS011;1283;47.982;7.834;2022-12-04T14:01:59;33.95;;;14.60;;
2546;SDS011;1283;47.982;7.834;2022-12-04T14:04:28;38.58;;;16.63;;
2546;SDS011;1283;47.982;7.834;2022-12-04T14:06:56;38.50;;;16.05;;
2546;SDS011;1283;47.982;7.834;2022-12-04T14:09:25;36.25;;;17.23;;
2546;SDS011;1283;47.982;7.834;2022-12-04T14:11:56;38.00;;;16.45;;
2546;SDS011;1283;47.982;7.834;2022-12-04T14:14:25;36.75;;;16.17;;
2546;SDS011;1283;47.982;7.834;2022-12-04T14:16:53;39.65;;;17.38;;
2546;SDS011;1283;47.982;7.834;2022-12-04T14:19:25;41.10;;;17.40;;
2546;SDS011;1283;47.982;7.834;2022-12-04T14:21:54;36.58;;;16.27;;
2546;SDS011;1283;47.982;7.834;2022-12-04T14:24:26;36.38;;;17.08;;
2546;SDS011;1283;47.982;7.834;2022-12-04T14:26:56;36.35;;;15.27;;
2546;SDS011;1283;47.982;7.834;2022-12-04T14:29:27;38.22;;;15.73;;
2546;SDS011;1283;47.982;7.834;2022-12-04T14:32:00;35.17;;;16.45;;
2546;SDS011;1283;47.982;7.834;2022-12-04T14:34:33;36.60;;;16.00;;
2546;SDS011;1283;47.982;7.834;2022-12-04T14:37:01;38.28;;;16.65;;
2546;SDS011;1283;47.982;7.834;2022-12-04T14:39:29;38.38;;;16.17;;
2546;SDS011;1283;47.982;7.834;2022-12-04T14:42:04;38.53;;;16.17;;
2546;SDS011;1283;47.982;7.834;2022-12-04T14:44:32;36.15;;;14.60;;
2546;SDS011;1283;47.982;7.834;2022-12-04T14:47:00;33.22;;;14.57;;
2546;SDS011;1283;47.982;7.834;2022-12-04T14:49:33;40.67;;;16.38;;
2546;SDS011;1283;47.982;7.834;2022-12-04T14:52:07;41.78;;;17.10;;
2546;SDS011;1283;47.982;7.834;2022-12-04T14:54:39;34.10;;;14.68;;
2546;SDS011;1283;47.982;7.834;2022-12-04T14:57:17;37.63;;;16.10;;
2546;SDS011;1283;47.982;7.834;2022-12-04T14:59:49;42.22;;;14.60;;
2546;SDS011;1283;47.982;7.834;2022-12-04T15:02:17;38.95;;;16.35;;
2546;SDS011;1283;47.982;7.834;2022-12-04T15:04:46;41.53;;;16.70;;
2546;SDS011;1283;47.982;7.834;2022-12-04T15:07:17;38.50;;;16.25;;
2546;SDS011;1283;47.982;7.834;2022-12-04T15:09:51;35.17;;;16.02;;
2546;SDS011;1283;47.982;7.834;2022-12-04T15:12:42;39.63;;;16.17;;
2546;SDS011;1283;47.982;7.834;2022-12-04T15:15:13;37.47;;;16.13;;
2546;SDS011;1283;47.982;7.834;2022-12-04T15:17:43;37.20;;;16.27;;
2546;SDS011;1283;47.982;7.834;2022-12-04T15:20:20;37.78;;;15.38;;
2546;SDS011;1283;47.982;7.834;2022-12-04T15:22:48;41.50;;;15.93;;
2546;SDS011;1283;47.982;7.834;2022-12-04T15:25:15;34.70;;;15.40;;
2546;SDS011;1283;47.982;7.834;2022-12-04T15:27:45;40.47;;;16.98;;
2546;SDS011;1283;47.982;7.834;2022-12-04T15:30:14;38.10;;;15.95;;
2546;SDS011;1283;47.982;7.834;2022-12-04T15:32:42;37.90;;;15.88;;
2546;SDS011;1283;47.982;7.834;2022-12-04T15:35:11;38.05;;;16.17;;
2546;SDS011;1283;47.982;7.834;2022-12-04T15:37:43;39.35;;;16.90;;